createdAt,value
2017-08-13T00:00:17.685Z,12.73
2017-08-13T00:02:44.102Z,7.50
2017-08-13T00:05:10.458Z,6.37
2017-08-13T00:07:36.844Z,7.13
2017-08-13T00:10:03.237Z,6.63
2017-08-13T00:12:29.618Z,7.27
2017-08-13T00:14:55.998Z,7.73
2017-08-13T00:17:22.369Z,8.20
2017-08-13T00:19:48.760Z,7.53
2017-08-13T00:22:15.139Z,7.87
2017-08-13T00:24:41.544Z,6.43
2017-08-13T00:27:07.909Z,7.40
2017-08-13T00:29:34.303Z,8.63
2017-08-13T00:32:00.697Z,5.73
2017-08-13T00:34:27.085Z,5.27
2017-08-13T00:36:53.451Z,7.70
2017-08-13T00:39:19.827Z,6.87
2017-08-13T00:41:46.229Z,8.77
2017-08-13T00:44:12.637Z,8.23
2017-08-13T00:46:39.020Z,9.00
2017-08-13T00:49:05.437Z,8.33
2017-08-13T00:51:31.878Z,9.73
2017-08-13T00:53:58.267Z,10.13
2017-08-13T00:56:24.677Z,10.17
2017-08-13T00:58:51.084Z,8.13
2017-08-13T01:01:17.507Z,9.73
2017-08-13T01:03:43.870Z,8.10
2017-08-13T01:06:10.235Z,8.80
2017-08-13T01:08:36.615Z,9.13
2017-08-13T01:11:03.021Z,9.70
2017-08-13T01:13:29.405Z,11.20
2017-08-13T01:15:55.792Z,8.47
2017-08-13T01:18:22.139Z,12.57
2017-08-13T01:20:48.570Z,10.30
2017-08-13T01:23:14.960Z,10.90
2017-08-13T01:25:41.327Z,9.30
2017-08-13T01:28:07.718Z,10.30
2017-08-13T01:30:34.105Z,10.43
2017-08-13T01:33:00.484Z,9.60
2017-08-13T01:35:26.864Z,15.67
2017-08-13T01:37:53.233Z,11.57
2017-08-13T01:40:19.631Z,11.30
2017-08-13T01:42:46.015Z,11.47
2017-08-13T01:45:12.424Z,12.87
2017-08-13T01:47:38.800Z,11.53
2017-08-13T01:50:05.172Z,11.57
2017-08-13T01:52:31.543Z,11.27
2017-08-13T01:54:57.905Z,11.80
2017-08-13T01:57:24.281Z,10.90
2017-08-13T01:59:50.670Z,12.13
2017-08-13T02:02:17.036Z,9.70
2017-08-13T02:04:43.416Z,11.17
2017-08-13T02:07:09.769Z,10.67
2017-08-13T02:09:36.118Z,16.37
2017-08-13T02:12:02.527Z,13.10
2017-08-13T02:14:28.893Z,15.77
2017-08-13T02:16:55.277Z,10.23
2017-08-13T02:19:21.648Z,12.33
2017-08-13T02:21:48.043Z,13.40
2017-08-13T02:24:14.426Z,12.70
2017-08-13T02:26:40.797Z,14.93
2017-08-13T02:29:07.177Z,15.97
2017-08-13T02:31:33.569Z,19.30
2017-08-13T02:33:59.955Z,14.47
2017-08-13T02:36:26.333Z,13.33
2017-08-13T02:38:52.711Z,15.07
2017-08-13T02:41:19.084Z,17.23
2017-08-13T02:43:45.466Z,15.50
2017-08-13T02:46:11.879Z,15.10
2017-08-13T02:48:38.248Z,15.47
2017-08-13T02:51:04.613Z,14.23
2017-08-13T02:53:30.976Z,16.13
2017-08-13T02:55:57.318Z,17.40
2017-08-13T02:58:23.683Z,17.47
2017-08-13T03:00:50.082Z,20.27
2017-08-13T03:03:16.484Z,16.63
2017-08-13T03:05:42.839Z,20.17
2017-08-13T03:08:09.209Z,16.70
2017-08-13T03:10:35.571Z,16.20
2017-08-13T03:13:01.942Z,16.63
2017-08-13T03:15:28.316Z,16.77
2017-08-13T03:17:54.711Z,17.20
2017-08-13T03:20:21.118Z,15.17
2017-08-13T03:22:47.485Z,20.27
2017-08-13T03:25:13.847Z,15.47
2017-08-13T03:27:40.213Z,18.57
2017-08-13T03:30:06.570Z,16.83
2017-08-13T03:32:32.939Z,17.87
2017-08-13T03:34:59.324Z,18.87
2017-08-13T03:37:25.685Z,17.30
2017-08-13T03:39:52.067Z,18.87
2017-08-13T03:42:18.434Z,21.50
2017-08-13T03:44:44.826Z,15.50
2017-08-13T03:47:11.217Z,15.60
2017-08-13T03:49:37.579Z,17.90
2017-08-13T03:52:03.960Z,16.43
2017-08-13T03:54:30.303Z,15.53
2017-08-13T03:56:56.690Z,13.67
2017-08-13T03:59:23.061Z,15.20
2017-08-13T04:01:49.421Z,14.00
2017-08-13T04:04:15.797Z,13.40
2017-08-13T04:06:45.762Z,13.40
2017-08-13T04:09:12.132Z,19.67
2017-08-13T04:11:38.578Z,18.03
2017-08-13T04:14:04.936Z,17.10
2017-08-13T04:16:31.318Z,18.13
2017-08-13T04:18:57.693Z,20.00
2017-08-13T04:21:24.050Z,18.27
2017-08-13T04:23:50.415Z,19.47
2017-08-13T04:26:16.758Z,18.57
2017-08-13T04:28:43.122Z,22.40
2017-08-13T04:31:09.494Z,17.77
2017-08-13T04:33:35.882Z,18.63
2017-08-13T04:36:02.239Z,19.30
2017-08-13T04:38:28.615Z,19.20
2017-08-13T04:40:55.029Z,20.77
2017-08-13T04:43:21.416Z,25.00
2017-08-13T04:45:47.812Z,17.20
2017-08-13T04:48:14.181Z,18.93
2017-08-13T04:50:40.587Z,24.03
2017-08-13T04:53:06.972Z,19.30
2017-08-13T04:55:33.376Z,30.70
2017-08-13T04:57:59.767Z,24.03
2017-08-13T05:00:26.117Z,25.37
2017-08-13T05:02:52.505Z,26.23
2017-08-13T05:05:18.881Z,26.20
2017-08-13T05:07:45.292Z,30.83
2017-08-13T05:10:11.706Z,22.00
2017-08-13T05:12:38.079Z,25.87
2017-08-13T05:15:04.447Z,27.30
2017-08-13T05:17:30.839Z,24.57
2017-08-13T05:19:57.240Z,27.43
2017-08-13T05:22:23.599Z,28.97
2017-08-13T05:24:49.960Z,27.27
2017-08-13T05:27:16.347Z,37.33
2017-08-13T05:29:42.699Z,33.47
2017-08-13T05:32:09.042Z,44.53
2017-08-13T05:34:35.428Z,38.37
2017-08-13T05:37:02.682Z,43.13
2017-08-13T05:39:29.073Z,34.53
2017-08-13T05:41:55.436Z,35.57
2017-08-13T05:44:21.845Z,25.53
2017-08-13T05:46:48.243Z,35.33
2017-08-13T05:49:14.625Z,24.83
2017-08-13T05:51:40.958Z,37.07
2017-08-13T05:54:07.324Z,34.63
2017-08-13T05:56:33.698Z,34.30
2017-08-13T05:59:00.462Z,38.67
2017-08-13T06:01:27.888Z,36.17
2017-08-13T06:03:54.233Z,33.53
2017-08-13T06:06:20.629Z,34.37
2017-08-13T06:08:47.020Z,38.90
2017-08-13T06:11:13.377Z,32.47
2017-08-13T06:13:39.750Z,36.20
2017-08-13T06:16:06.128Z,37.80
2017-08-13T06:18:32.525Z,38.60
2017-08-13T06:20:58.903Z,36.60
2017-08-13T06:23:25.296Z,33.73
2017-08-13T06:25:51.687Z,33.77
2017-08-13T06:28:18.088Z,29.07
2017-08-13T06:30:44.497Z,28.37
2017-08-13T06:33:10.897Z,29.37
2017-08-13T06:35:37.247Z,27.33
2017-08-13T06:38:03.603Z,29.60
2017-08-13T06:40:30.001Z,26.03
2017-08-13T06:42:56.700Z,25.03
2017-08-13T06:45:23.075Z,24.20
2017-08-13T06:47:49.511Z,26.20
2017-08-13T06:50:15.908Z,24.10
2017-08-13T06:52:42.329Z,24.80
2017-08-13T06:55:08.687Z,30.27
2017-08-13T06:57:35.073Z,24.43
2017-08-13T07:00:01.487Z,28.40
2017-08-13T07:02:27.862Z,24.53
2017-08-13T07:04:54.213Z,26.90
2017-08-13T07:07:20.571Z,28.77
2017-08-13T07:09:46.968Z,27.93
2017-08-13T07:12:13.398Z,29.23
2017-08-13T07:14:39.747Z,27.23
2017-08-13T07:17:06.143Z,33.03
2017-08-13T07:19:32.543Z,29.40
2017-08-13T07:21:58.910Z,35.80
2017-08-13T07:24:25.285Z,30.90
2017-08-13T07:26:51.659Z,31.77
2017-08-13T07:29:18.045Z,29.20
2017-08-13T07:31:44.441Z,31.80
2017-08-13T07:34:10.847Z,25.30
2017-08-13T07:36:37.242Z,25.03
2017-08-13T07:39:04.006Z,25.58
2017-08-13T07:41:30.873Z,24.63
2017-08-13T07:43:57.257Z,25.23
2017-08-13T07:46:23.667Z,24.40
2017-08-13T07:48:50.073Z,27.50
2017-08-13T07:51:16.464Z,24.60
2017-08-13T07:53:42.863Z,27.80
2017-08-13T07:56:09.227Z,28.80
2017-08-13T07:58:35.598Z,27.50
2017-08-13T08:01:02.173Z,29.23
2017-08-13T08:03:29.436Z,26.53
2017-08-13T08:05:55.888Z,26.03
2017-08-13T08:08:22.289Z,26.73
2017-08-13T08:10:48.746Z,27.33
2017-08-13T08:13:15.137Z,31.60
2017-08-13T08:15:41.532Z,31.20
2017-08-13T08:18:07.950Z,27.83
2017-08-13T08:20:34.324Z,27.17
2017-08-13T08:23:00.716Z,24.80
2017-08-13T08:25:27.106Z,23.77
2017-08-13T08:27:53.511Z,23.27
2017-08-13T08:30:19.913Z,22.97
2017-08-13T08:32:46.296Z,20.33
2017-08-13T08:35:12.677Z,19.73
2017-08-13T08:37:39.064Z,19.47
2017-08-13T08:40:05.606Z,20.17
2017-08-13T08:42:31.989Z,19.93
2017-08-13T08:44:58.375Z,16.77
2017-08-13T08:47:24.780Z,16.93
2017-08-13T08:49:51.157Z,17.23
2017-08-13T08:52:17.528Z,15.20
2017-08-13T08:54:43.920Z,13.73
2017-08-13T08:57:10.327Z,14.87
2017-08-13T08:59:36.722Z,13.90
2017-08-13T09:02:03.132Z,13.00
2017-08-13T09:04:29.491Z,16.00
2017-08-13T09:06:55.881Z,14.97
2017-08-13T09:09:22.248Z,11.67
2017-08-13T09:11:48.644Z,12.80
2017-08-13T09:14:15.035Z,10.77
2017-08-13T09:16:41.438Z,12.00
2017-08-13T09:19:07.821Z,9.07
2017-08-13T09:21:34.221Z,8.40
2017-08-13T09:24:00.614Z,7.63
2017-08-13T09:26:27.003Z,8.77
2017-08-13T09:28:53.386Z,7.47
2017-08-13T09:31:19.763Z,5.83
2017-08-13T09:33:46.145Z,6.70
2017-08-13T09:36:12.544Z,6.17
2017-08-13T09:38:38.934Z,6.30
2017-08-13T09:41:05.312Z,7.77
2017-08-13T09:43:31.686Z,8.70
2017-08-13T09:45:58.038Z,8.67
2017-08-13T09:48:24.433Z,9.67
2017-08-13T09:50:50.798Z,11.27
2017-08-13T09:53:17.186Z,11.87
2017-08-13T09:55:43.555Z,11.20
2017-08-13T09:58:09.967Z,10.57
2017-08-13T10:00:36.344Z,10.00
2017-08-13T10:03:02.744Z,8.97
2017-08-13T10:05:29.129Z,10.03
2017-08-13T10:07:55.518Z,9.23
2017-08-13T10:10:21.928Z,11.17
2017-08-13T10:12:48.329Z,9.40
2017-08-13T10:15:14.729Z,9.63
2017-08-13T10:17:41.150Z,9.60
2017-08-13T10:20:07.857Z,9.97
2017-08-13T10:22:34.256Z,12.33
2017-08-13T10:25:00.675Z,12.67
2017-08-13T10:27:27.087Z,11.60
2017-08-13T10:29:53.500Z,12.90
2017-08-13T10:32:19.901Z,11.57
2017-08-13T10:34:46.273Z,13.93
2017-08-13T10:37:12.666Z,13.60
2017-08-13T10:39:39.050Z,11.93
2017-08-13T10:42:05.429Z,13.20
2017-08-13T10:44:31.824Z,12.53
2017-08-13T10:46:58.585Z,11.80
2017-08-13T10:49:25.015Z,10.83
2017-08-13T10:51:51.410Z,10.93
2017-08-13T10:54:17.815Z,9.87
2017-08-13T10:56:44.217Z,9.60
2017-08-13T10:59:10.899Z,8.60
2017-08-13T11:01:38.168Z,9.53
2017-08-13T11:04:04.639Z,11.07
2017-08-13T11:06:31.056Z,10.47
2017-08-13T11:08:57.909Z,10.40
2017-08-13T11:11:24.309Z,9.50
2017-08-13T11:13:50.710Z,10.13
2017-08-13T11:16:17.127Z,9.77
2017-08-13T11:18:43.527Z,9.10
2017-08-13T11:21:09.950Z,9.40
2017-08-13T11:23:36.336Z,9.67
2017-08-13T11:26:02.755Z,10.30
2017-08-13T11:28:29.157Z,9.55
2017-08-13T11:30:55.568Z,11.97
2017-08-13T11:33:21.995Z,10.40
2017-08-13T11:35:48.407Z,11.33
2017-08-13T11:38:14.809Z,11.60
2017-08-13T11:40:41.268Z,10.70
2017-08-13T11:43:07.698Z,11.73
2017-08-13T11:45:34.210Z,11.37
2017-08-13T11:48:00.627Z,12.17
2017-08-13T11:50:27.004Z,11.20
2017-08-13T11:52:53.404Z,11.20
2017-08-13T11:55:19.853Z,11.20
2017-08-13T11:57:46.247Z,10.37
2017-08-13T12:00:12.667Z,9.40
2017-08-13T12:02:39.054Z,8.67
2017-08-13T12:05:05.439Z,7.33
2017-08-13T12:07:31.820Z,9.07
2017-08-13T12:09:58.384Z,6.03
2017-08-13T12:12:25.188Z,6.83
2017-08-13T12:14:51.564Z,8.40
2017-08-13T12:17:17.934Z,6.60
2017-08-13T12:19:44.344Z,6.43
2017-08-13T12:22:10.714Z,6.23
2017-08-13T12:24:37.124Z,6.20
2017-08-13T12:27:03.517Z,5.97
2017-08-13T12:29:29.913Z,7.70
2017-08-13T12:31:56.289Z,5.20
2017-08-13T12:34:22.677Z,5.33
2017-08-13T12:36:49.067Z,4.60
2017-08-13T12:39:15.450Z,5.43
2017-08-13T12:41:41.985Z,5.53
2017-08-13T12:44:08.393Z,4.40
2017-08-13T12:46:34.891Z,7.97
2017-08-13T12:49:01.300Z,5.57
2017-08-13T12:51:27.701Z,5.43
2017-08-13T12:53:54.145Z,4.67
2017-08-13T12:56:20.562Z,4.83
2017-08-13T12:58:46.961Z,5.07
2017-08-13T13:01:13.357Z,4.90
2017-08-13T13:03:39.767Z,5.10
2017-08-13T13:06:06.361Z,5.43
2017-08-13T13:08:33.336Z,6.13
2017-08-13T13:10:59.718Z,5.37
2017-08-13T13:13:26.104Z,5.23
2017-08-13T13:15:52.495Z,4.30
2017-08-13T13:18:18.884Z,4.77
2017-08-13T13:20:45.321Z,6.00
2017-08-13T13:23:11.735Z,4.10
2017-08-13T13:25:38.132Z,7.50
2017-08-13T13:28:04.547Z,4.87
2017-08-13T13:30:30.962Z,6.37
2017-08-13T13:32:57.316Z,4.43
2017-08-13T13:35:23.718Z,5.00
2017-08-13T13:37:50.107Z,4.07
2017-08-13T13:40:16.501Z,3.60
2017-08-13T13:42:42.938Z,3.67
2017-08-13T13:45:09.323Z,4.57
2017-08-13T13:47:35.730Z,3.67
2017-08-13T13:50:02.105Z,4.37
2017-08-13T13:52:28.484Z,4.40
2017-08-13T13:54:54.914Z,3.60
2017-08-13T13:57:21.302Z,3.57
2017-08-13T13:59:47.668Z,4.83
2017-08-13T14:02:14.049Z,6.87
2017-08-13T14:04:40.399Z,3.77
2017-08-13T14:07:06.798Z,4.20
2017-08-13T14:09:33.201Z,4.90
2017-08-13T14:11:59.615Z,4.17
2017-08-13T14:14:26.049Z,7.53
2017-08-13T14:16:52.425Z,4.40
2017-08-13T14:19:18.789Z,3.90
2017-08-13T14:21:45.180Z,5.62
2017-08-13T14:24:11.609Z,3.90
2017-08-13T14:26:37.984Z,4.00
2017-08-13T14:29:04.358Z,4.40
2017-08-13T14:31:30.749Z,5.00
2017-08-13T14:33:57.129Z,4.83
2017-08-13T14:36:23.531Z,4.50
2017-08-13T14:38:49.916Z,4.90
2017-08-13T14:41:16.381Z,3.85
2017-08-13T14:43:42.800Z,5.10
2017-08-13T14:46:09.209Z,4.40
2017-08-13T14:48:35.570Z,4.63
2017-08-13T14:51:01.968Z,5.73
2017-08-13T14:53:28.382Z,5.10
2017-08-13T14:55:54.738Z,4.77
2017-08-13T14:58:21.187Z,5.17
2017-08-13T15:00:47.657Z,5.63
2017-08-13T15:03:14.052Z,8.10
2017-08-13T15:05:40.452Z,5.30
2017-08-13T15:08:06.867Z,5.60
2017-08-13T15:10:33.264Z,5.80
2017-08-13T15:12:59.653Z,5.10
2017-08-13T15:15:26.052Z,7.30
2017-08-13T15:17:52.492Z,5.13
2017-08-13T15:20:18.919Z,6.27
2017-08-13T15:22:45.310Z,5.20
2017-08-13T15:25:11.711Z,5.90
2017-08-13T15:27:38.116Z,4.50
2017-08-13T15:30:04.501Z,5.60
2017-08-13T15:32:30.897Z,6.80
2017-08-13T15:34:57.281Z,5.30
2017-08-13T15:37:23.707Z,6.10
2017-08-13T15:39:50.112Z,5.20
2017-08-13T15:42:16.511Z,5.10
2017-08-13T15:44:42.907Z,4.87
2017-08-13T15:47:09.285Z,9.10
2017-08-13T15:49:35.910Z,5.20
2017-08-13T15:52:02.289Z,6.27
2017-08-13T15:54:28.689Z,6.40
2017-08-13T15:56:55.123Z,5.97
2017-08-13T15:59:21.558Z,7.20
2017-08-13T16:01:47.945Z,11.43
2017-08-13T16:04:14.373Z,7.32
2017-08-13T16:06:40.773Z,7.53
2017-08-13T16:09:07.190Z,8.33
2017-08-13T16:11:33.601Z,7.80
2017-08-13T16:13:59.982Z,8.47
2017-08-13T16:16:26.397Z,5.70
2017-08-13T16:18:52.798Z,6.60
2017-08-13T16:21:19.202Z,5.95
2017-08-13T16:23:45.583Z,6.67
2017-08-13T16:26:11.968Z,6.40
2017-08-13T16:28:38.354Z,6.67
2017-08-13T16:31:04.741Z,6.30
2017-08-13T16:33:31.144Z,8.87
2017-08-13T16:35:57.566Z,5.80
2017-08-13T16:38:23.995Z,6.40
2017-08-13T16:40:50.377Z,9.77
2017-08-13T16:43:18.102Z,6.80
2017-08-13T16:45:44.502Z,6.13
2017-08-13T16:48:10.886Z,5.47
2017-08-13T16:50:38.333Z,6.10
2017-08-13T16:53:04.771Z,5.53
2017-08-13T16:55:31.185Z,6.40
2017-08-13T16:57:57.544Z,6.77
2017-08-13T17:00:23.941Z,6.17
2017-08-13T17:02:50.566Z,5.53
2017-08-13T17:05:16.998Z,7.40
2017-08-13T17:07:44.037Z,5.83
2017-08-13T17:10:10.413Z,4.60
2017-08-13T17:12:36.775Z,6.60
2017-08-13T17:15:03.185Z,5.47
2017-08-13T17:17:29.543Z,4.73
2017-08-13T17:19:55.932Z,5.23
2017-08-13T17:22:22.317Z,4.40
2017-08-13T17:24:48.709Z,5.33
2017-08-13T17:27:15.103Z,3.40
2017-08-13T17:29:41.484Z,3.70
2017-08-13T17:32:07.879Z,4.03
2017-08-13T17:34:34.291Z,3.80
2017-08-13T17:37:00.687Z,3.37
2017-08-13T17:39:27.099Z,3.93
2017-08-13T17:41:53.466Z,10.37
2017-08-13T17:44:19.815Z,3.83
2017-08-13T17:46:46.199Z,2.90
2017-08-13T17:49:12.612Z,2.87
2017-08-13T17:51:39.010Z,3.63
2017-08-13T17:54:05.746Z,3.03
2017-08-13T17:56:32.749Z,3.83
2017-08-13T17:58:59.272Z,3.40
2017-08-13T18:01:29.084Z,5.37
2017-08-13T18:04:01.225Z,3.27
2017-08-13T18:06:32.335Z,4.07
2017-08-13T18:09:03.049Z,2.83
2017-08-13T18:11:33.237Z,2.93
2017-08-13T18:14:05.393Z,3.70
2017-08-13T18:16:36.149Z,4.90
2017-08-13T18:19:04.428Z,4.50
2017-08-13T18:21:30.909Z,3.77
2017-08-13T18:23:57.354Z,3.83
2017-08-13T18:26:23.746Z,6.30
2017-08-13T18:28:52.058Z,3.63
2017-08-13T18:31:19.735Z,4.27
2017-08-13T18:33:46.659Z,6.23
2017-08-13T18:36:13.048Z,5.70
2017-08-13T18:38:39.936Z,4.70
2017-08-13T18:41:06.395Z,5.20
2017-08-13T18:43:32.805Z,4.97
2017-08-13T18:46:00.232Z,4.60
2017-08-13T18:48:27.221Z,4.70
2017-08-13T18:50:53.629Z,5.40
2017-08-13T18:53:20.532Z,4.37
2017-08-13T18:55:47.507Z,4.23
2017-08-13T18:58:14.230Z,4.07
2017-08-13T19:00:40.903Z,8.73
2017-08-13T19:03:07.542Z,11.40
2017-08-13T19:05:33.995Z,10.80
2017-08-13T19:08:00.444Z,7.07
2017-08-13T19:10:26.913Z,10.40
2017-08-13T19:12:53.736Z,7.03
2017-08-13T19:15:20.974Z,4.27
2017-08-13T19:17:47.969Z,9.07
2017-08-13T19:20:14.477Z,12.07
2017-08-13T19:22:41.101Z,7.57
2017-08-13T19:25:07.992Z,7.77
2017-08-13T19:27:34.407Z,7.37
2017-08-13T19:30:00.804Z,6.50
2017-08-13T19:32:27.206Z,7.00
2017-08-13T19:34:53.599Z,8.53
2017-08-13T19:37:20.535Z,8.97
2017-08-13T19:39:47.368Z,8.60
2017-08-13T19:42:13.792Z,7.50
2017-08-13T19:44:40.144Z,10.00
2017-08-13T19:47:06.595Z,19.33
2017-08-13T19:49:32.991Z,12.77
2017-08-13T19:51:59.396Z,15.03
2017-08-13T19:54:26.380Z,11.77
2017-08-13T19:56:52.799Z,11.37
2017-08-13T19:59:24.205Z,10.30
2017-08-13T20:01:53.966Z,9.77
2017-08-13T20:04:25.227Z,11.80
2017-08-13T20:06:55.463Z,9.53
2017-08-13T20:09:21.971Z,12.93
2017-08-13T20:11:48.377Z,17.33
2017-08-13T20:14:15.225Z,11.93
2017-08-13T20:16:41.776Z,7.13
2017-08-13T20:19:08.438Z,10.93
2017-08-13T20:21:35.418Z,8.93
2017-08-13T20:24:02.276Z,9.07
2017-08-13T20:26:28.766Z,9.03
2017-08-13T20:28:55.703Z,8.07
2017-08-13T20:31:22.480Z,8.43
2017-08-13T20:33:49.394Z,11.23
2017-08-13T20:36:15.825Z,13.60
2017-08-13T20:38:42.315Z,19.00
2017-08-13T20:41:08.709Z,16.07
2017-08-13T20:43:35.239Z,10.37
2017-08-13T20:46:01.801Z,8.90
2017-08-13T20:48:28.236Z,10.10
2017-08-13T20:50:54.786Z,8.90
2017-08-13T20:53:21.159Z,15.10
2017-08-13T20:55:47.797Z,14.87
2017-08-13T20:58:14.825Z,15.23
2017-08-13T21:00:41.307Z,12.90
2017-08-13T21:03:07.752Z,27.90
2017-08-13T21:05:34.223Z,22.03
2017-08-13T21:08:00.622Z,21.43
2017-08-13T21:10:27.533Z,14.00
2017-08-13T21:12:54.429Z,14.07
2017-08-13T21:15:23.805Z,17.33
2017-08-13T21:17:50.371Z,10.57
2017-08-13T21:20:16.778Z,10.30
2017-08-13T21:22:43.181Z,12.20
2017-08-13T21:25:09.564Z,10.83
2017-08-13T21:27:35.956Z,8.33
2017-08-13T21:30:02.520Z,9.30
2017-08-13T21:32:29.463Z,9.53
2017-08-13T21:34:56.387Z,9.27
2017-08-13T21:37:23.272Z,9.97
2017-08-13T21:39:49.655Z,21.13
2017-08-13T21:42:16.072Z,26.40
2017-08-13T21:44:42.505Z,18.23
2017-08-13T21:47:08.869Z,14.00
2017-08-13T21:49:35.974Z,12.77
2017-08-13T21:52:02.372Z,13.20
2017-08-13T21:54:29.357Z,12.73
2017-08-13T21:56:55.795Z,11.77
2017-08-13T21:59:22.367Z,10.90
2017-08-13T22:01:48.790Z,10.40
2017-08-13T22:04:15.402Z,9.00
2017-08-13T22:06:43.097Z,8.57
2017-08-13T22:09:09.537Z,8.40
2017-08-13T22:11:36.241Z,7.87
2017-08-13T22:14:03.057Z,6.83
2017-08-13T22:16:29.930Z,7.93
2017-08-13T22:18:56.380Z,10.57
2017-08-13T22:21:23.858Z,12.60
2017-08-13T22:23:50.293Z,7.37
2017-08-13T22:26:16.660Z,8.30
2017-08-13T22:28:43.049Z,7.37
2017-08-13T22:31:10.123Z,7.87
2017-08-13T22:33:36.533Z,8.63
2017-08-13T22:36:02.913Z,7.17
2017-08-13T22:38:29.333Z,9.43
2017-08-13T22:40:55.715Z,6.70
2017-08-13T22:43:22.081Z,7.10
2017-08-13T22:45:48.462Z,6.77
2017-08-13T22:48:14.851Z,7.00
2017-08-13T22:50:41.489Z,7.60
2017-08-13T22:53:08.454Z,7.00
2017-08-13T22:55:35.182Z,8.90
2017-08-13T22:58:01.547Z,6.83
2017-08-13T23:00:28.213Z,7.00
2017-08-13T23:02:54.634Z,7.63
2017-08-13T23:05:21.055Z,8.70
2017-08-13T23:07:47.463Z,8.10
2017-08-13T23:10:13.916Z,7.30
2017-08-13T23:12:40.298Z,9.57
2017-08-13T23:15:06.736Z,7.37
2017-08-13T23:17:33.178Z,7.70
2017-08-13T23:19:59.588Z,8.50
2017-08-13T23:22:25.990Z,7.90
2017-08-13T23:24:52.388Z,7.23
2017-08-13T23:27:18.769Z,8.03
2017-08-13T23:29:45.159Z,7.63
2017-08-13T23:32:11.538Z,7.07
2017-08-13T23:34:37.952Z,9.60
2017-08-13T23:37:04.350Z,8.80
2017-08-13T23:39:30.757Z,7.80
2017-08-13T23:41:57.158Z,7.03
2017-08-13T23:44:23.564Z,6.43
2017-08-13T23:46:49.944Z,8.90
2017-08-13T23:49:16.302Z,9.53
2017-08-13T23:51:42.666Z,8.80
2017-08-13T23:54:09.037Z,9.03
2017-08-13T23:56:35.425Z,10.37
2017-08-13T23:59:01.793Z,8.27
